createdAt,value
2017-04-10T00:00:34.258Z,63.90
2017-04-10T00:01:34.954Z,63.90
2017-04-10T00:02:35.030Z,63.90
2017-04-10T00:03:35.467Z,63.90
2017-04-10T00:04:35.508Z,63.80
2017-04-10T00:05:41.773Z,63.90
2017-04-10T00:06:41.823Z,63.90
2017-04-10T00:08:42.266Z,63.90
2017-04-10T00:09:42.353Z,64.00
2017-04-10T00:10:42.390Z,64.20
2017-04-10T00:11:42.441Z,64.20
2017-04-10T00:12:42.525Z,64.30
2017-04-10T00:13:42.900Z,64.30
2017-04-10T00:14:43.750Z,64.30
2017-04-10T00:15:43.844Z,64.30
2017-04-10T00:16:44.681Z,64.40
2017-04-10T00:17:44.760Z,64.40
2017-04-10T00:18:45.089Z,64.60
2017-04-10T00:19:45.516Z,64.50
2017-04-10T00:20:45.567Z,64.50
2017-04-10T00:21:45.651Z,64.40
2017-04-10T00:22:45.915Z,64.50
2017-04-10T00:23:46.271Z,64.60
2017-04-10T00:24:46.320Z,64.60
2017-04-10T00:25:46.358Z,64.70
2017-04-10T00:26:47.149Z,64.80
2017-04-10T00:28:48.018Z,65.00
2017-04-10T00:29:48.831Z,65.00
2017-04-10T00:30:49.601Z,66.00
2017-04-10T00:31:49.592Z,65.30
2017-04-10T00:32:49.720Z,65.40
2017-04-10T00:33:50.027Z,66.00
2017-04-10T00:34:50.161Z,65.40
2017-04-10T00:35:50.202Z,65.50
2017-04-10T00:36:50.229Z,65.50
2017-04-10T00:37:50.267Z,65.40
2017-04-10T00:38:51.975Z,65.40
2017-04-10T00:39:52.001Z,65.60
2017-04-10T00:40:52.042Z,65.60
2017-04-10T00:41:52.459Z,65.60
2017-04-10T00:42:52.517Z,65.70
2017-04-10T00:43:52.931Z,65.90
2017-04-10T00:44:52.944Z,65.70
2017-04-10T00:45:54.655Z,65.90
2017-04-10T00:46:54.726Z,65.80
2017-04-10T00:47:54.739Z,65.80
2017-04-10T00:48:55.170Z,65.90
2017-04-10T00:49:55.197Z,66.10
2017-04-10T00:50:56.034Z,66.10
2017-04-10T00:51:56.094Z,66.40
2017-04-10T00:52:56.900Z,66.30
2017-04-10T00:53:57.310Z,66.30
2017-04-10T00:54:57.311Z,66.30
2017-04-10T00:55:58.045Z,66.40
2017-04-10T00:56:58.083Z,66.50
2017-04-10T00:57:58.144Z,66.50
2017-04-10T00:58:59.374Z,66.40
2017-04-10T01:00:00.212Z,66.40
2017-04-10T01:01:00.301Z,66.50
2017-04-10T01:02:01.045Z,66.80
2017-04-10T01:03:01.076Z,66.40
2017-04-10T01:04:01.561Z,66.60
2017-04-10T01:05:01.600Z,66.50
2017-04-10T01:06:01.626Z,66.50
2017-04-10T01:07:01.668Z,66.60
2017-04-10T01:08:02.413Z,67.50
2017-04-10T01:09:03.643Z,67.50
2017-04-10T01:10:03.737Z,66.70
2017-04-10T01:11:04.524Z,66.80
2017-04-10T01:12:04.580Z,66.80
2017-04-10T01:13:05.555Z,66.70
2017-04-10T01:14:05.914Z,66.70
2017-04-10T01:15:06.822Z,66.70
2017-04-10T01:16:06.889Z,66.60
2017-04-10T01:17:06.971Z,66.70
2017-04-10T01:18:07.035Z,66.70
2017-04-10T01:19:07.219Z,66.70
2017-04-10T01:20:07.219Z,66.70
2017-04-10T01:21:07.309Z,66.90
2017-04-10T01:22:07.314Z,66.90
2017-04-10T01:23:07.445Z,66.90
2017-04-10T01:24:07.953Z,67.10
2017-04-10T01:25:08.098Z,67.10
2017-04-10T01:26:08.718Z,66.90
2017-04-10T01:27:08.797Z,66.90
2017-04-10T01:28:09.703Z,67.00
2017-04-10T01:29:10.025Z,67.10
2017-04-10T01:30:10.431Z,67.10
2017-04-10T01:31:10.542Z,67.10
2017-04-10T01:32:11.327Z,67.20
2017-04-10T01:33:11.350Z,67.20
2017-04-10T01:34:11.728Z,67.20
2017-04-10T01:35:11.743Z,67.20
2017-04-10T01:36:11.866Z,67.40
2017-04-10T01:37:11.881Z,67.60
2017-04-10T01:38:11.902Z,67.60
2017-04-10T01:39:12.324Z,67.70
2017-04-10T01:40:12.356Z,67.70
2017-04-10T01:41:12.341Z,67.70
2017-04-10T01:42:13.205Z,67.60
2017-04-10T01:43:19.914Z,67.60
2017-04-10T01:45:21.453Z,67.60
2017-04-10T01:46:21.501Z,67.50
2017-04-10T01:47:21.545Z,68.20
2017-04-10T01:48:21.528Z,67.60
2017-04-10T01:49:21.836Z,67.60
2017-04-10T01:50:21.903Z,67.60
2017-04-10T01:51:22.684Z,67.70
2017-04-10T01:52:22.704Z,67.60
2017-04-10T01:53:22.794Z,67.60
2017-04-10T01:54:23.269Z,67.60
2017-04-10T01:55:24.072Z,67.60
2017-04-10T01:56:24.245Z,68.50
2017-04-10T01:57:24.348Z,67.70
2017-04-10T01:58:24.400Z,67.60
2017-04-10T01:59:24.851Z,67.60
2017-04-10T02:00:24.945Z,67.60
2017-04-10T02:01:25.712Z,67.60
2017-04-10T02:02:25.767Z,67.60
2017-04-10T02:03:25.837Z,67.60
2017-04-10T02:04:26.221Z,67.60
2017-04-10T02:05:26.285Z,67.60
2017-04-10T02:06:26.342Z,67.60
2017-04-10T02:07:26.718Z,67.80
2017-04-10T02:08:26.712Z,67.60
2017-04-10T02:09:27.042Z,67.60
2017-04-10T02:10:27.831Z,67.70
2017-04-10T02:11:27.874Z,67.60
2017-04-10T02:12:27.903Z,67.60
2017-04-10T02:13:28.662Z,67.60
2017-04-10T02:14:29.133Z,67.60
2017-04-10T02:15:29.937Z,67.60
2017-04-10T02:16:29.995Z,67.60
2017-04-10T02:17:30.030Z,67.60
2017-04-10T02:18:30.065Z,67.60
2017-04-10T02:19:30.422Z,67.60
2017-04-10T02:20:30.433Z,67.60
2017-04-10T02:21:30.454Z,67.60
2017-04-10T02:22:30.569Z,67.60
2017-04-10T02:23:30.772Z,67.60
2017-04-10T02:24:31.116Z,67.60
2017-04-10T02:25:31.287Z,67.60
2017-04-10T02:26:31.252Z,67.60
2017-04-10T02:27:32.070Z,67.60
2017-04-10T02:28:32.106Z,67.60
2017-04-10T02:29:32.498Z,68.50
2017-04-10T02:30:32.539Z,68.50
2017-04-10T02:31:32.538Z,68.00
2017-04-10T02:32:32.603Z,68.70
2017-04-10T02:33:32.795Z,68.50
2017-04-10T02:34:32.946Z,68.80
2017-04-10T02:35:32.962Z,68.70
2017-04-10T02:36:33.711Z,68.60
2017-04-10T02:37:33.711Z,68.90
2017-04-10T02:38:33.737Z,69.20
2017-04-10T02:39:34.126Z,69.10
2017-04-10T02:40:34.827Z,69.00
2017-04-10T02:41:35.594Z,69.10
2017-04-10T02:42:35.628Z,68.90
2017-04-10T02:43:35.715Z,68.90
2017-04-10T02:44:36.074Z,68.90
2017-04-10T02:45:36.258Z,68.90
2017-04-10T02:46:36.243Z,68.70
2017-04-10T02:47:36.267Z,69.00
2017-04-10T02:48:36.251Z,68.90
2017-04-10T02:49:36.835Z,68.80
2017-04-10T02:50:37.634Z,68.90
2017-04-10T02:51:37.687Z,69.00
2017-04-10T02:52:37.692Z,69.00
2017-04-10T02:53:37.842Z,68.90
2017-04-10T02:54:38.182Z,68.90
2017-04-10T02:55:38.245Z,68.90
2017-04-10T02:56:38.226Z,68.70
2017-04-10T02:57:38.247Z,68.90
2017-04-10T02:58:38.267Z,68.80
2017-04-10T02:59:38.657Z,68.80
2017-04-10T03:00:39.262Z,69.10
2017-04-10T03:01:40.043Z,69.10
2017-04-10T03:02:40.011Z,68.80
2017-04-10T03:03:40.042Z,68.80
2017-04-10T03:04:40.474Z,69.00
2017-04-10T03:05:40.503Z,68.90
2017-04-10T03:06:41.482Z,68.70
2017-04-10T03:07:41.515Z,68.90
2017-04-10T03:08:41.555Z,69.00
2017-04-10T03:09:42.687Z,69.50
2017-04-10T03:10:43.600Z,69.50
2017-04-10T03:11:44.766Z,69.00
2017-04-10T03:12:45.636Z,68.70
2017-04-10T03:13:45.662Z,68.90
2017-04-10T03:14:46.214Z,68.90
2017-04-10T03:15:47.051Z,68.80
2017-04-10T03:16:47.094Z,68.70
2017-04-10T03:17:47.154Z,68.60
2017-04-10T03:18:48.018Z,68.60
2017-04-10T03:19:48.386Z,68.60
2017-04-10T03:20:50.096Z,69.10
2017-04-10T03:21:50.397Z,69.00
2017-04-10T03:22:50.695Z,69.00
2017-04-10T03:23:51.558Z,69.00
2017-04-10T03:24:52.015Z,69.10
2017-04-10T03:25:52.750Z,69.10
2017-04-10T03:26:52.799Z,69.70
2017-04-10T03:27:52.847Z,69.10
2017-04-10T03:28:53.634Z,69.20
2017-04-10T03:29:53.971Z,69.10
2017-04-10T03:30:54.038Z,69.30
2017-04-10T03:31:54.076Z,69.30
2017-04-10T03:32:54.134Z,69.20
2017-04-10T03:33:54.202Z,69.20
2017-04-10T03:34:54.572Z,69.10
2017-04-10T03:35:54.714Z,69.30
2017-04-10T03:36:54.884Z,69.30
2017-04-10T03:37:54.994Z,69.40
2017-04-10T03:38:55.012Z,69.20
2017-04-10T03:39:55.340Z,69.50
2017-04-10T03:40:55.407Z,69.40
2017-04-10T03:41:55.424Z,69.50
2017-04-10T03:42:55.446Z,69.50
2017-04-10T03:43:55.443Z,69.30
2017-04-10T03:44:55.878Z,69.30
2017-04-10T03:45:55.902Z,69.20
2017-04-10T03:46:56.798Z,69.20
2017-04-10T03:47:56.941Z,69.20
2017-04-10T03:48:56.979Z,69.40
2017-04-10T03:49:57.389Z,69.30
2017-04-10T03:50:58.175Z,69.20
2017-04-10T03:51:58.937Z,69.10
2017-04-10T03:52:59.745Z,69.00
2017-04-10T03:53:59.874Z,69.00
2017-04-10T03:55:01.019Z,68.90
2017-04-10T03:56:01.098Z,69.00
2017-04-10T03:57:01.266Z,69.00
2017-04-10T03:58:01.286Z,69.00
2017-04-10T03:59:01.283Z,68.70
2017-04-10T04:00:01.661Z,68.80
2017-04-10T04:01:01.748Z,68.80
2017-04-10T04:02:01.752Z,68.70
2017-04-10T04:03:01.840Z,68.80
2017-04-10T04:04:02.411Z,68.40
2017-04-10T04:05:02.711Z,68.50
2017-04-10T04:06:03.533Z,68.50
2017-04-10T04:07:03.584Z,68.50
2017-04-10T04:08:03.599Z,68.50
2017-04-10T04:09:03.719Z,68.50
2017-04-10T04:10:04.183Z,67.60
2017-04-10T04:11:05.037Z,68.50
2017-04-10T04:12:05.127Z,68.50
2017-04-10T04:13:05.245Z,67.60
2017-04-10T04:14:05.422Z,67.60
2017-04-10T04:15:06.807Z,67.20
2017-04-10T04:16:06.879Z,67.10
2017-04-10T04:17:07.842Z,66.50
2017-04-10T04:18:08.434Z,66.70
2017-04-10T04:19:09.251Z,66.70
2017-04-10T04:20:10.494Z,66.60
2017-04-10T04:21:10.626Z,66.20
2017-04-10T04:22:10.642Z,66.00
2017-04-10T04:23:10.727Z,65.10
2017-04-10T04:24:12.083Z,63.20
2017-04-10T04:25:12.508Z,63.60
2017-04-10T04:26:12.543Z,62.40
2017-04-10T04:27:12.687Z,61.90
2017-04-10T04:28:12.730Z,61.50
2017-04-10T04:29:12.810Z,60.30
2017-04-10T04:30:13.318Z,60.00
2017-04-10T04:31:13.782Z,59.80
2017-04-10T04:32:13.842Z,59.20
2017-04-10T04:33:13.886Z,59.00
2017-04-10T04:34:13.926Z,58.60
2017-04-10T04:35:14.277Z,58.00
2017-04-10T04:36:14.421Z,57.30
2017-04-10T04:37:14.427Z,57.90
2017-04-10T04:38:14.474Z,57.50
2017-04-10T04:39:14.470Z,57.30
2017-04-10T04:40:14.800Z,56.70
2017-04-10T04:41:14.874Z,57.00
2017-04-10T04:42:14.901Z,56.40
2017-04-10T04:43:14.938Z,56.20
2017-04-10T04:44:15.696Z,56.10
2017-04-10T04:45:16.269Z,56.30
2017-04-10T04:47:23.457Z,56.40
2017-04-10T04:48:24.251Z,56.20
2017-04-10T04:49:24.427Z,56.00
2017-04-10T04:50:24.503Z,55.80
2017-04-10T04:51:25.314Z,55.60
2017-04-10T04:52:25.412Z,55.80
2017-04-10T04:53:25.397Z,56.20
2017-04-10T04:54:25.446Z,55.70
2017-04-10T04:55:26.236Z,56.10
2017-04-10T04:56:26.287Z,56.20
2017-04-10T04:57:26.354Z,55.80
2017-04-10T04:58:26.413Z,55.90
2017-04-10T04:59:26.531Z,56.00
2017-04-10T05:00:27.132Z,55.70
2017-04-10T05:01:27.218Z,56.50
2017-04-10T05:02:27.351Z,56.50
2017-04-10T05:03:27.514Z,56.10
2017-04-10T05:04:27.724Z,56.70
2017-04-10T05:05:28.321Z,56.00
2017-04-10T05:06:29.202Z,56.10
2017-04-10T05:07:29.311Z,56.40
2017-04-10T05:08:29.400Z,56.30
2017-04-10T05:09:29.478Z,56.90
2017-04-10T05:10:29.949Z,56.40
2017-04-10T05:11:30.753Z,56.40
2017-04-10T05:12:30.874Z,56.50
2017-04-10T05:13:30.962Z,56.70
2017-04-10T05:14:31.247Z,56.10
2017-04-10T05:15:31.630Z,56.50
2017-04-10T05:16:31.790Z,56.00
2017-04-10T05:17:31.977Z,56.70
2017-04-10T05:18:32.082Z,56.70
2017-04-10T05:19:32.402Z,56.90
2017-04-10T05:20:32.879Z,56.50
2017-04-10T05:21:32.903Z,56.60
2017-04-10T05:22:34.653Z,56.50
2017-04-10T05:23:34.869Z,56.80
2017-04-10T05:24:34.920Z,56.90
2017-04-10T05:25:35.475Z,57.10
2017-04-10T05:26:35.498Z,56.70
2017-04-10T05:27:36.310Z,56.90
2017-04-10T05:28:36.352Z,56.90
2017-04-10T05:29:36.500Z,57.30
2017-04-10T05:30:37.066Z,57.10
2017-04-10T05:31:37.087Z,57.20
2017-04-10T05:32:37.148Z,56.90
2017-04-10T05:33:37.216Z,56.80
2017-04-10T05:34:37.295Z,57.20
2017-04-10T05:35:38.177Z,57.00
2017-04-10T05:36:38.266Z,57.20
2017-04-10T05:37:38.297Z,57.30
2017-04-10T05:38:38.473Z,57.20
2017-04-10T05:39:38.610Z,57.40
2017-04-10T05:41:39.467Z,57.40
2017-04-10T05:42:40.001Z,57.30
2017-04-10T05:43:40.097Z,57.30
2017-04-10T05:44:40.140Z,57.00
2017-04-10T05:45:40.518Z,57.20
2017-04-10T05:46:40.549Z,57.50
2017-04-10T05:47:40.600Z,57.40
2017-04-10T05:48:40.708Z,57.60
2017-04-10T05:49:40.834Z,57.80
2017-04-10T05:50:41.283Z,58.00
2017-04-10T05:51:41.361Z,58.20
2017-04-10T05:52:41.609Z,58.30
2017-04-10T05:53:41.785Z,58.50
2017-04-10T05:54:41.831Z,58.70
2017-04-10T05:55:42.320Z,58.80
2017-04-10T05:56:43.130Z,58.80
2017-04-10T05:57:43.225Z,58.70
2017-04-10T05:58:43.473Z,58.80
2017-04-10T05:59:44.488Z,58.80
2017-04-10T06:00:45.732Z,58.90
2017-04-10T06:01:46.736Z,59.90
2017-04-10T06:02:46.852Z,59.10
2017-04-10T06:03:46.982Z,58.90
2017-04-10T06:04:47.737Z,59.20
2017-04-10T06:05:48.105Z,59.20
2017-04-10T06:06:48.283Z,59.20
2017-04-10T06:07:48.244Z,59.70
2017-04-10T06:08:48.316Z,59.70
2017-04-10T06:09:48.562Z,60.00
2017-04-10T06:10:49.073Z,60.30
2017-04-10T06:11:49.204Z,60.40
2017-04-10T06:12:49.307Z,61.10
2017-04-10T06:13:50.238Z,60.70
2017-04-10T06:14:50.319Z,61.00
2017-04-10T06:15:50.731Z,61.10
2017-04-10T06:16:51.005Z,61.10
2017-04-10T06:17:51.057Z,61.20
2017-04-10T06:18:51.123Z,61.10
2017-04-10T06:19:51.273Z,61.10
2017-04-10T06:20:52.116Z,61.10
2017-04-10T06:21:52.986Z,61.10
2017-04-10T06:22:53.134Z,61.20
2017-04-10T06:23:53.961Z,61.10
2017-04-10T06:24:54.772Z,61.10
2017-04-10T06:25:55.236Z,61.00
2017-04-10T06:26:55.293Z,61.20
2017-04-10T06:27:55.484Z,61.00
2017-04-10T06:28:55.609Z,61.40
2017-04-10T06:29:56.371Z,61.80
2017-04-10T06:30:56.894Z,61.70
2017-04-10T06:31:57.060Z,62.10
2017-04-10T06:32:57.163Z,61.90
2017-04-10T06:33:57.225Z,61.90
2017-04-10T06:34:57.355Z,62.20
2017-04-10T06:35:57.829Z,62.30
2017-04-10T06:36:58.469Z,62.30
2017-04-10T06:37:58.570Z,62.40
2017-04-10T06:38:59.391Z,62.10
2017-04-10T06:39:59.441Z,62.10
2017-04-10T06:40:59.769Z,61.90
2017-04-10T06:41:59.899Z,62.10
2017-04-10T06:43:00.130Z,62.10
2017-04-10T06:44:00.954Z,62.30
2017-04-10T06:45:01.128Z,62.30
2017-04-10T06:46:02.311Z,61.80
2017-04-10T06:47:03.167Z,62.50
2017-04-10T06:48:03.293Z,61.40
2017-04-10T06:49:03.324Z,61.50
2017-04-10T06:50:03.525Z,61.50
2017-04-10T06:51:03.986Z,61.50
2017-04-10T06:52:04.074Z,61.90
2017-04-10T06:53:04.718Z,62.20
2017-04-10T06:54:04.713Z,63.20
2017-04-10T06:55:05.539Z,62.60
2017-04-10T06:56:06.703Z,62.90
2017-04-10T06:57:06.869Z,63.40
2017-04-10T06:58:06.975Z,63.50
2017-04-10T06:59:07.010Z,63.70
2017-04-10T07:00:07.143Z,63.90
2017-04-10T07:01:07.527Z,64.00
2017-04-10T07:02:07.991Z,64.30
2017-04-10T07:03:09.117Z,64.60
2017-04-10T07:04:09.187Z,64.80
2017-04-10T07:05:09.246Z,64.60
2017-04-10T07:06:09.631Z,64.70
2017-04-10T07:07:09.796Z,64.60
2017-04-10T07:08:09.960Z,64.70
2017-04-10T07:09:10.043Z,64.80
2017-04-10T07:10:10.106Z,65.00
2017-04-10T07:11:10.542Z,65.50
2017-04-10T07:12:11.370Z,66.30
2017-04-10T07:13:11.538Z,65.90
2017-04-10T07:14:11.623Z,65.60
2017-04-10T07:15:11.726Z,65.90
2017-04-10T07:16:12.347Z,66.20
2017-04-10T07:17:12.610Z,67.20
2017-04-10T07:18:12.718Z,66.70
2017-04-10T07:19:12.784Z,66.90
2017-04-10T07:20:12.909Z,66.80
2017-04-10T07:21:14.639Z,66.40
2017-04-10T07:22:14.846Z,66.20
2017-04-10T07:23:15.155Z,66.00
2017-04-10T07:24:15.274Z,66.00
2017-04-10T07:25:15.378Z,66.70
2017-04-10T07:26:15.771Z,67.30
2017-04-10T07:27:16.049Z,66.40
2017-04-10T07:28:16.128Z,66.20
2017-04-10T07:29:16.262Z,66.30
2017-04-10T07:30:16.322Z,66.30
2017-04-10T07:31:16.523Z,66.70
2017-04-10T07:32:16.688Z,66.10
2017-04-10T07:33:16.805Z,66.80
2017-04-10T07:34:17.338Z,66.70
2017-04-10T07:35:17.457Z,67.00
2017-04-10T07:36:17.878Z,67.10
2017-04-10T07:37:18.957Z,67.00
2017-04-10T07:38:19.118Z,66.80
2017-04-10T07:39:19.983Z,66.70
2017-04-10T07:40:20.000Z,66.90
2017-04-10T07:41:21.027Z,66.90
2017-04-10T07:42:21.154Z,66.80
2017-04-10T07:43:21.269Z,66.50
2017-04-10T07:44:21.355Z,66.30
2017-04-10T07:45:21.527Z,66.40
2017-04-10T07:46:21.955Z,66.30
2017-04-10T07:47:22.071Z,66.30
2017-04-10T07:48:22.169Z,65.50
2017-04-10T07:49:22.362Z,65.30
2017-04-10T07:50:23.182Z,65.40
2017-04-10T07:51:23.510Z,65.50
2017-04-10T07:52:24.306Z,64.70
2017-04-10T07:53:24.385Z,64.60
2017-04-10T07:54:24.483Z,64.60
2017-04-10T07:55:24.549Z,64.70
2017-04-10T07:56:25.788Z,65.10
2017-04-10T07:57:26.134Z,65.10
2017-04-10T07:58:26.215Z,65.20
2017-04-10T07:59:26.294Z,64.90
2017-04-10T08:00:26.406Z,65.10
2017-04-10T08:01:26.946Z,65.40
2017-04-10T08:02:27.894Z,65.40
2017-04-10T08:03:28.005Z,65.30
2017-04-10T08:04:28.088Z,65.80
2017-04-10T08:05:29.005Z,65.70
2017-04-10T08:06:29.533Z,65.80
2017-04-10T08:07:29.676Z,65.80
2017-04-10T08:08:29.750Z,65.80
2017-04-10T08:09:29.843Z,66.30
2017-04-10T08:10:29.910Z,66.20
2017-04-10T08:11:30.349Z,66.40
2017-04-10T08:12:30.465Z,66.50
2017-04-10T08:13:30.606Z,66.80
2017-04-10T08:14:30.778Z,66.60
2017-04-10T08:15:30.886Z,66.70
2017-04-10T08:16:31.385Z,66.40
2017-04-10T08:17:31.498Z,66.70
2017-04-10T08:18:31.623Z,66.70
2017-04-10T08:19:31.757Z,66.50
2017-04-10T08:20:32.545Z,66.50
2017-04-10T08:21:33.015Z,66.00
2017-04-10T08:22:33.885Z,65.40
2017-04-10T08:23:34.134Z,65.50
2017-04-10T08:24:34.235Z,64.70
2017-04-10T08:25:34.314Z,64.90
2017-04-10T08:26:34.810Z,65.00
2017-04-10T08:27:35.661Z,65.00
2017-04-10T08:28:35.777Z,64.80
2017-04-10T08:29:35.845Z,64.60
2017-04-10T08:30:36.686Z,64.50
2017-04-10T08:31:37.179Z,64.00
2017-04-10T08:32:38.087Z,63.50
2017-04-10T08:33:38.990Z,64.30
2017-04-10T08:34:39.072Z,63.60
2017-04-10T08:35:39.246Z,63.50
2017-04-10T08:36:40.478Z,63.80
2017-04-10T08:37:40.650Z,63.80
2017-04-10T08:38:40.798Z,63.70
2017-04-10T08:39:41.036Z,63.90
2017-04-10T08:40:41.101Z,63.80
2017-04-10T08:41:41.486Z,63.80
2017-04-10T08:42:41.582Z,64.00
2017-04-10T08:43:46.116Z,63.70
2017-04-10T08:44:46.250Z,63.50
2017-04-10T08:45:46.368Z,63.40
2017-04-10T08:46:46.761Z,63.70
2017-04-10T08:47:48.929Z,63.50
2017-04-10T08:48:49.036Z,63.50
2017-04-10T08:49:49.122Z,63.20
2017-04-10T08:50:49.253Z,63.20
2017-04-10T08:51:49.713Z,63.20
2017-04-10T08:52:50.581Z,62.20
2017-04-10T08:53:50.690Z,62.10
2017-04-10T08:54:50.822Z,61.70
2017-04-10T08:55:50.971Z,62.00
2017-04-10T08:56:52.306Z,61.90
2017-04-10T08:57:52.491Z,62.50
2017-04-10T08:58:52.604Z,61.90
2017-04-10T08:59:53.478Z,62.00
2017-04-10T09:00:53.659Z,61.70
2017-04-10T09:01:54.086Z,61.10
2017-04-10T09:02:54.127Z,60.80
2017-04-10T09:03:54.148Z,60.20
2017-04-10T09:04:54.316Z,59.90
2017-04-10T09:05:54.334Z,59.70
2017-04-10T09:06:54.700Z,59.30
2017-04-10T09:07:55.885Z,59.90
2017-04-10T09:08:56.120Z,58.50
2017-04-10T09:09:56.247Z,58.70
2017-04-10T09:10:57.149Z,58.20
2017-04-10T09:11:57.559Z,59.40
2017-04-10T09:12:57.766Z,58.90
2017-04-10T09:13:58.417Z,58.50
2017-04-10T09:14:58.547Z,58.80
2017-04-10T09:15:58.806Z,59.20
2017-04-10T09:16:59.307Z,59.60
2017-04-10T09:17:59.435Z,59.50
2017-04-10T09:18:59.494Z,59.50
2017-04-10T09:20:00.271Z,59.70
2017-04-10T09:21:00.368Z,60.00
2017-04-10T09:22:00.859Z,60.20
2017-04-10T09:23:00.973Z,60.70
2017-04-10T09:24:01.107Z,60.60
2017-04-10T09:25:01.218Z,61.00
2017-04-10T09:26:01.311Z,61.20
2017-04-10T09:27:01.663Z,61.40
2017-04-10T09:28:01.869Z,61.10
2017-04-10T09:29:01.965Z,61.20
2017-04-10T09:30:02.139Z,61.00
2017-04-10T09:31:02.365Z,60.30
2017-04-10T09:32:02.726Z,60.70
2017-04-10T09:33:02.870Z,60.60
2017-04-10T09:34:02.920Z,61.10
2017-04-10T09:35:03.118Z,61.40
2017-04-10T09:36:03.970Z,60.80
2017-04-10T09:37:04.440Z,60.70
2017-04-10T09:38:04.497Z,60.50
2017-04-10T09:39:04.833Z,60.20
2017-04-10T09:40:05.134Z,59.90
2017-04-10T09:41:05.201Z,59.40
2017-04-10T09:42:05.669Z,59.90
2017-04-10T09:43:05.967Z,59.40
2017-04-10T09:44:06.144Z,59.40
2017-04-10T09:45:06.253Z,59.40
2017-04-10T09:46:06.318Z,59.40
2017-04-10T09:47:07.453Z,59.50
2017-04-10T09:48:07.585Z,58.20
2017-04-10T09:49:14.415Z,57.20
2017-04-10T09:50:14.629Z,57.10
2017-04-10T09:51:15.506Z,57.40
2017-04-10T09:52:15.964Z,56.40
2017-04-10T09:53:16.155Z,56.40
2017-04-10T09:54:16.227Z,56.40
2017-04-10T09:55:16.411Z,55.80
2017-04-10T09:56:16.566Z,56.10
2017-04-10T09:57:17.340Z,56.40
2017-04-10T09:58:17.690Z,56.90
2017-04-10T09:59:17.873Z,56.80
2017-04-10T10:00:18.702Z,56.60
2017-04-10T10:01:19.544Z,57.00
2017-04-10T10:02:19.930Z,57.00
2017-04-10T10:04:20.428Z,57.30
2017-04-10T10:05:21.054Z,57.10
2017-04-10T10:06:21.222Z,57.20
2017-04-10T10:07:21.840Z,57.80
2017-04-10T10:08:22.055Z,57.70
2017-04-10T10:09:22.176Z,58.10
2017-04-10T10:10:22.244Z,57.60
2017-04-10T10:11:22.327Z,58.90
2017-04-10T10:12:22.661Z,57.90
2017-04-10T10:13:22.776Z,58.20
2017-04-10T10:14:22.919Z,56.70
2017-04-10T10:15:22.966Z,56.20
2017-04-10T10:16:23.112Z,56.00
2017-04-10T10:17:23.638Z,56.10
2017-04-10T10:18:23.941Z,56.20
2017-04-10T10:19:24.751Z,55.50
2017-04-10T10:20:24.837Z,55.60
2017-04-10T10:21:25.028Z,55.30
2017-04-10T10:22:25.476Z,55.60
2017-04-10T10:23:25.610Z,56.00
2017-04-10T10:24:25.716Z,56.20
2017-04-10T10:25:25.771Z,55.70
2017-04-10T10:26:25.825Z,56.20
2017-04-10T10:27:26.911Z,55.70
2017-04-10T10:28:27.700Z,55.10
2017-04-10T10:29:27.799Z,53.40
2017-04-10T10:30:27.924Z,53.60
2017-04-10T10:31:28.023Z,53.40
2017-04-10T10:32:28.658Z,53.30
2017-04-10T10:33:29.166Z,53.30
2017-04-10T10:34:29.551Z,53.80
2017-04-10T10:35:29.628Z,54.20
2017-04-10T10:36:30.018Z,54.50
2017-04-10T10:37:30.500Z,55.10
2017-04-10T10:38:31.158Z,55.40
2017-04-10T10:39:31.284Z,55.80
2017-04-10T10:40:31.330Z,56.10
2017-04-10T10:41:32.175Z,56.20
2017-04-10T10:42:32.819Z,56.10
2017-04-10T10:43:32.990Z,55.80
2017-04-10T10:44:33.038Z,55.60
2017-04-10T10:45:33.108Z,55.20
2017-04-10T10:46:34.109Z,55.10
2017-04-10T10:47:34.799Z,54.80
2017-04-10T10:48:35.044Z,54.80
2017-04-10T10:49:35.228Z,54.00
2017-04-10T10:50:35.419Z,54.00
2017-04-10T10:51:35.468Z,54.40
2017-04-10T10:52:35.970Z,54.70
2017-04-10T10:53:36.109Z,54.90
2017-04-10T10:54:36.224Z,54.40
2017-04-10T10:55:37.070Z,54.70
2017-04-10T10:56:37.132Z,54.80
2017-04-10T10:57:37.698Z,53.70
2017-04-10T10:58:38.518Z,52.60
2017-04-10T10:59:48.374Z,52.50
2017-04-10T11:00:48.447Z,51.60
2017-04-10T11:01:48.567Z,51.80
2017-04-10T11:02:49.002Z,51.30
2017-04-10T11:03:50.100Z,49.80
2017-04-10T11:04:50.269Z,50.50
2017-04-10T11:05:50.518Z,48.40
2017-04-10T11:06:50.623Z,48.50
2017-04-10T11:07:51.079Z,48.60
2017-04-10T11:08:51.237Z,48.80
2017-04-10T11:09:51.432Z,48.30
2017-04-10T11:10:51.506Z,47.80
2017-04-10T11:11:52.368Z,47.90
2017-04-10T11:12:52.786Z,47.30
2017-04-10T11:13:52.900Z,48.70
2017-04-10T11:14:53.021Z,47.40
2017-04-10T11:15:53.096Z,48.30
2017-04-10T11:16:53.193Z,48.40
2017-04-10T11:17:53.545Z,46.50
2017-04-10T11:18:53.588Z,45.40
2017-04-10T11:19:53.699Z,46.70
2017-04-10T11:20:53.743Z,47.30
2017-04-10T11:21:53.777Z,46.50
2017-04-10T11:22:54.177Z,46.50
2017-04-10T11:23:54.765Z,47.10
2017-04-10T11:24:55.642Z,46.50
2017-04-10T11:25:55.704Z,46.90
2017-04-10T11:26:55.759Z,47.10
2017-04-10T11:27:56.158Z,46.90
2017-04-10T11:28:56.263Z,47.50
2017-04-10T11:29:56.583Z,47.50
2017-04-10T11:30:56.705Z,47.40
2017-04-10T11:31:58.285Z,46.90
2017-04-10T11:32:58.669Z,46.50
2017-04-10T11:33:58.793Z,45.10
2017-04-10T11:34:58.945Z,45.10
2017-04-10T11:35:59.316Z,45.80
2017-04-10T11:36:59.519Z,46.40
2017-04-10T11:38:00.096Z,45.80
2017-04-10T11:39:00.208Z,46.70
2017-04-10T11:52:55.578Z,48.90
2017-04-10T11:53:55.793Z,49.10
2017-04-10T11:54:56.155Z,49.40
2017-04-10T11:55:56.381Z,50.10
2017-04-10T11:56:57.200Z,51.20
2017-04-10T11:57:57.309Z,50.40
2017-04-10T11:58:57.530Z,50.40
2017-04-10T12:00:58.513Z,51.30
2017-04-10T12:01:58.606Z,50.60
2017-04-10T12:02:58.735Z,51.20
2017-04-10T12:03:58.998Z,51.20
2017-04-10T12:05:00.242Z,51.60
2017-04-10T12:06:01.713Z,51.10
2017-04-10T12:07:01.783Z,51.10
2017-04-10T12:08:02.863Z,50.90
2017-04-10T12:09:03.115Z,51.30
2017-04-10T12:10:03.621Z,49.30
2017-04-10T12:11:04.546Z,49.60
2017-04-10T12:12:04.867Z,49.80
2017-04-10T12:13:05.149Z,50.30
2017-04-10T12:14:05.206Z,50.30
2017-04-10T12:15:06.052Z,49.70
2017-04-10T12:16:06.191Z,51.30
2017-04-10T12:17:06.289Z,50.10
2017-04-10T12:18:07.166Z,49.60
2017-04-10T12:19:07.464Z,50.00
2017-04-10T12:20:07.708Z,49.50
2017-04-10T12:21:09.169Z,49.20
2017-04-10T12:22:09.263Z,49.20
2017-04-10T12:23:10.077Z,49.60
2017-04-10T12:24:10.808Z,49.40
2017-04-10T12:25:12.059Z,49.20
2017-04-10T12:26:12.193Z,49.00
2017-04-10T12:27:12.470Z,49.30
2017-04-10T12:28:13.322Z,48.10
2017-04-10T12:29:13.514Z,47.50
2017-04-10T12:30:14.072Z,48.10
2017-04-10T12:31:14.267Z,48.70
2017-04-10T12:32:14.302Z,48.30
2017-04-10T12:33:14.442Z,47.50
2017-04-10T12:34:15.465Z,47.20
2017-04-10T12:36:16.579Z,46.70
2017-04-10T12:37:16.671Z,46.90
2017-04-10T12:38:16.691Z,46.30
2017-04-10T12:39:16.855Z,47.30
2017-04-10T12:40:18.027Z,46.80
2017-04-10T12:41:18.082Z,46.40
2017-04-10T12:42:18.901Z,46.70
2017-04-10T12:43:19.338Z,46.30
2017-04-10T12:44:20.225Z,45.90
2017-04-10T12:45:20.765Z,46.10
2017-04-10T12:46:21.565Z,46.30
2017-04-10T12:47:21.733Z,46.80
2017-04-10T12:48:21.828Z,46.50
2017-04-10T12:49:22.775Z,47.00
2017-04-10T12:50:23.288Z,46.80
2017-04-10T12:51:23.443Z,46.80
2017-04-10T12:52:23.572Z,47.30
2017-04-10T12:53:23.686Z,47.40
2017-04-10T12:54:23.930Z,47.90
2017-04-10T12:55:24.359Z,48.10
2017-04-10T12:56:24.477Z,48.00
2017-04-10T12:57:24.516Z,48.10
2017-04-10T12:58:24.707Z,48.30
2017-04-10T12:59:24.803Z,48.90
2017-04-10T13:00:25.457Z,48.80
2017-04-10T13:01:26.319Z,50.00
2017-04-10T13:02:26.618Z,49.30
2017-04-10T13:03:27.454Z,50.00
2017-04-10T13:04:28.573Z,50.50
2017-04-10T13:05:29.715Z,50.90
2017-04-10T13:06:29.819Z,49.80
2017-04-10T13:07:30.730Z,49.70
2017-04-10T13:08:31.558Z,49.70
2017-04-10T13:09:31.678Z,49.00
2017-04-10T13:10:32.206Z,48.10
2017-04-10T13:11:32.914Z,47.90
2017-04-10T13:12:33.060Z,47.20
2017-04-10T13:13:33.247Z,47.30
2017-04-10T13:14:34.256Z,47.20
2017-04-10T13:15:35.392Z,46.60
2017-04-10T13:16:36.225Z,46.60
2017-04-10T13:17:37.200Z,46.60
2017-04-10T13:18:37.366Z,46.20